sensor_id;sensor_type;location;lat;lon;timestamp;P1;durP1;ratioP1;P2;durP2;ratioP2
4365;SDS011;2196;47.422;9.656;2023-05-10T00:00:38;1.17;;;0.90;;
4365;SDS011;2196;47.422;9.656;2023-05-10T00:03:05;0.97;;;0.83;;
4365;SDS011;2196;47.422;9.656;2023-05-10T00:05:35;0.67;;;0.67;;
4365;SDS011;2196;47.422;9.656;2023-05-10T00:08:02;1.50;;;0.60;;
4365;SDS011;2196;47.422;9.656;2023-05-10T00:10:29;0.70;;;0.70;;
4365;SDS011;2196;47.422;9.656;2023-05-10T00:12:56;0.53;;;0.53;;
4365;SDS011;2196;47.422;9.656;2023-05-10T00:15:23;0.50;;;0.50;;
4365;SDS011;2196;47.422;9.656;2023-05-10T00:17:50;0.40;;;0.40;;
4365;SDS011;2196;47.422;9.656;2023-05-10T00:20:17;1.70;;;0.33;;
4365;SDS011;2196;47.422;9.656;2023-05-10T00:22:45;0.30;;;0.30;;
4365;SDS011;2196;47.422;9.656;2023-05-10T00:25:12;2.20;;;0.70;;
4365;SDS011;2196;47.422;9.656;2023-05-10T00:27:39;0.83;;;0.40;;
4365;SDS011;2196;47.422;9.656;2023-05-10T00:30:07;1.20;;;0.60;;
4365;SDS011;2196;47.422;9.656;2023-05-10T00:59:25;1.40;;;0.10;;
4365;SDS011;2196;47.422;9.656;2023-05-10T01:01:52;0.00;;;0.00;;
4365;SDS011;2196;47.422;9.656;2023-05-10T01:04:20;0.10;;;0.10;;
4365;SDS011;2196;47.422;9.656;2023-05-10T01:06:50;0.67;;;0.07;;
4365;SDS011;2196;47.422;9.656;2023-05-10T01:09:18;0.00;;;0.00;;
4365;SDS011;2196;47.422;9.656;2023-05-10T01:11:45;1.20;;;0.00;;
4365;SDS011;2196;47.422;9.656;2023-05-10T01:14:13;0.00;;;0.00;;
4365;SDS011;2196;47.422;9.656;2023-05-10T01:16:45;0.13;;;0.00;;
4365;SDS011;2196;47.422;9.656;2023-05-10T01:19:17;0.00;;;0.00;;
4365;SDS011;2196;47.422;9.656;2023-05-10T01:21:48;0.10;;;0.10;;
4365;SDS011;2196;47.422;9.656;2023-05-10T01:24:27;0.10;;;0.00;;
4365;SDS011;2196;47.422;9.656;2023-05-10T01:33:47;0.00;;;0.00;;
4365;SDS011;2196;47.422;9.656;2023-05-10T01:36:19;0.00;;;0.00;;
4365;SDS011;2196;47.422;9.656;2023-05-10T01:38:52;0.00;;;0.00;;
4365;SDS011;2196;47.422;9.656;2023-05-10T01:41:24;0.00;;;0.00;;
4365;SDS011;2196;47.422;9.656;2023-05-10T01:43:59;0.00;;;0.00;;
4365;SDS011;2196;47.422;9.656;2023-05-10T01:46:32;0.07;;;0.07;;
4365;SDS011;2196;47.422;9.656;2023-05-10T01:49:03;0.13;;;0.00;;
4365;SDS011;2196;47.422;9.656;2023-05-10T01:51:36;0.10;;;0.10;;
4365;SDS011;2196;47.422;9.656;2023-05-10T01:54:08;0.10;;;0.10;;
4365;SDS011;2196;47.422;9.656;2023-05-10T01:56:38;1.40;;;0.10;;
4365;SDS011;2196;47.422;9.656;2023-05-10T01:59:08;0.30;;;0.00;;
4365;SDS011;2196;47.422;9.656;2023-05-10T02:01:39;0.10;;;0.10;;
4365;SDS011;2196;47.422;9.656;2023-05-10T02:04:08;0.00;;;0.00;;
4365;SDS011;2196;47.422;9.656;2023-05-10T02:06:37;0.10;;;0.10;;
4365;SDS011;2196;47.422;9.656;2023-05-10T02:09:05;0.70;;;0.00;;
4365;SDS011;2196;47.422;9.656;2023-05-10T02:11:34;1.03;;;0.00;;
4365;SDS011;2196;47.422;9.656;2023-05-10T02:14:03;0.10;;;0.10;;
4365;SDS011;2196;47.422;9.656;2023-05-10T02:16:31;0.20;;;0.20;;
4365;SDS011;2196;47.422;9.656;2023-05-10T02:19:00;0.00;;;0.00;;
4365;SDS011;2196;47.422;9.656;2023-05-10T02:21:30;0.83;;;0.10;;
4365;SDS011;2196;47.422;9.656;2023-05-10T02:23:59;0.10;;;0.10;;
4365;SDS011;2196;47.422;9.656;2023-05-10T02:26:29;0.10;;;0.10;;
4365;SDS011;2196;47.422;9.656;2023-05-10T02:28:57;0.20;;;0.10;;
4365;SDS011;2196;47.422;9.656;2023-05-10T02:31:25;0.00;;;0.00;;
4365;SDS011;2196;47.422;9.656;2023-05-10T02:33:52;0.10;;;0.10;;
4365;SDS011;2196;47.422;9.656;2023-05-10T02:36:20;0.10;;;0.10;;
4365;SDS011;2196;47.422;9.656;2023-05-10T02:38:50;0.63;;;0.10;;
4365;SDS011;2196;47.422;9.656;2023-05-10T02:41:19;0.00;;;0.00;;
4365;SDS011;2196;47.422;9.656;2023-05-10T02:43:49;0.47;;;0.10;;
4365;SDS011;2196;47.422;9.656;2023-05-10T02:46:17;0.10;;;0.10;;
4365;SDS011;2196;47.422;9.656;2023-05-10T02:48:44;0.10;;;0.07;;
4365;SDS011;2196;47.422;9.656;2023-05-10T02:51:12;1.10;;;0.00;;
4365;SDS011;2196;47.422;9.656;2023-05-10T02:53:43;1.03;;;0.10;;
4365;SDS011;2196;47.422;9.656;2023-05-10T02:56:13;0.10;;;0.00;;
4365;SDS011;2196;47.422;9.656;2023-05-10T02:58:46;1.10;;;0.17;;
4365;SDS011;2196;47.422;9.656;2023-05-10T03:01:13;0.87;;;0.10;;
4365;SDS011;2196;47.422;9.656;2023-05-10T03:03:40;1.50;;;0.23;;
4365;SDS011;2196;47.422;9.656;2023-05-10T03:06:07;1.13;;;0.10;;
4365;SDS011;2196;47.422;9.656;2023-05-10T03:08:34;0.10;;;0.10;;
4365;SDS011;2196;47.422;9.656;2023-05-10T03:11:07;0.13;;;0.10;;
4365;SDS011;2196;47.422;9.656;2023-05-10T03:13:52;0.30;;;0.10;;
4365;SDS011;2196;47.422;9.656;2023-05-10T03:16:32;0.63;;;0.20;;
4365;SDS011;2196;47.422;9.656;2023-05-10T03:19:11;0.30;;;0.07;;
4365;SDS011;2196;47.422;9.656;2023-05-10T03:21:43;0.77;;;0.10;;
4365;SDS011;2196;47.422;9.656;2023-05-10T03:24:16;0.10;;;0.10;;
4365;SDS011;2196;47.422;9.656;2023-05-10T03:26:45;0.10;;;0.10;;
4365;SDS011;2196;47.422;9.656;2023-05-10T03:29:13;0.10;;;0.10;;
4365;SDS011;2196;47.422;9.656;2023-05-10T03:31:41;0.17;;;0.10;;
4365;SDS011;2196;47.422;9.656;2023-05-10T03:34:09;0.30;;;0.10;;
4365;SDS011;2196;47.422;9.656;2023-05-10T03:36:36;0.20;;;0.10;;
4365;SDS011;2196;47.422;9.656;2023-05-10T03:39:03;0.10;;;0.10;;
4365;SDS011;2196;47.422;9.656;2023-05-10T03:41:30;1.23;;;0.30;;
4365;SDS011;2196;47.422;9.656;2023-05-10T03:43:58;0.77;;;0.20;;
4365;SDS011;2196;47.422;9.656;2023-05-10T03:46:25;1.80;;;0.20;;
4365;SDS011;2196;47.422;9.656;2023-05-10T03:48:52;0.27;;;0.20;;
4365;SDS011;2196;47.422;9.656;2023-05-10T03:51:19;0.93;;;0.30;;
4365;SDS011;2196;47.422;9.656;2023-05-10T03:53:47;0.20;;;0.20;;
4365;SDS011;2196;47.422;9.656;2023-05-10T03:56:14;0.13;;;0.13;;
4365;SDS011;2196;47.422;9.656;2023-05-10T03:58:41;1.10;;;0.27;;
4365;SDS011;2196;47.422;9.656;2023-05-10T04:01:09;0.10;;;0.10;;
4365;SDS011;2196;47.422;9.656;2023-05-10T04:03:36;0.20;;;0.20;;
4365;SDS011;2196;47.422;9.656;2023-05-10T04:06:03;0.10;;;0.10;;
4365;SDS011;2196;47.422;9.656;2023-05-10T04:08:31;0.20;;;0.20;;
4365;SDS011;2196;47.422;9.656;2023-05-10T04:11:04;1.80;;;0.20;;
4365;SDS011;2196;47.422;9.656;2023-05-10T04:13:32;0.40;;;0.20;;
4365;SDS011;2196;47.422;9.656;2023-05-10T04:16:00;0.33;;;0.20;;
4365;SDS011;2196;47.422;9.656;2023-05-10T04:18:28;1.23;;;0.20;;
4365;SDS011;2196;47.422;9.656;2023-05-10T04:20:55;0.20;;;0.20;;
4365;SDS011;2196;47.422;9.656;2023-05-10T04:23:22;0.40;;;0.40;;
4365;SDS011;2196;47.422;9.656;2023-05-10T04:25:49;1.57;;;0.20;;
4365;SDS011;2196;47.422;9.656;2023-05-10T04:28:16;0.37;;;0.20;;
4365;SDS011;2196;47.422;9.656;2023-05-10T04:30:43;0.20;;;0.20;;
4365;SDS011;2196;47.422;9.656;2023-05-10T04:33:10;0.30;;;0.30;;
4365;SDS011;2196;47.422;9.656;2023-05-10T04:35:39;0.20;;;0.20;;
4365;SDS011;2196;47.422;9.656;2023-05-10T04:38:06;2.30;;;0.40;;
4365;SDS011;2196;47.422;9.656;2023-05-10T04:40:33;0.57;;;0.30;;
4365;SDS011;2196;47.422;9.656;2023-05-10T04:43:00;0.40;;;0.40;;
4365;SDS011;2196;47.422;9.656;2023-05-10T04:45:27;2.43;;;1.57;;
4365;SDS011;2196;47.422;9.656;2023-05-10T04:47:54;1.77;;;1.30;;
4365;SDS011;2196;47.422;9.656;2023-05-10T04:50:21;1.60;;;1.50;;
4365;SDS011;2196;47.422;9.656;2023-05-10T04:52:49;2.00;;;1.87;;
4365;SDS011;2196;47.422;9.656;2023-05-10T04:55:17;7.87;;;7.13;;
4365;SDS011;2196;47.422;9.656;2023-05-10T04:57:43;4.07;;;3.77;;
4365;SDS011;2196;47.422;9.656;2023-05-10T05:00:11;1.53;;;1.43;;
4365;SDS011;2196;47.422;9.656;2023-05-10T05:02:41;2.30;;;0.93;;
4365;SDS011;2196;47.422;9.656;2023-05-10T05:05:09;1.50;;;1.33;;
4365;SDS011;2196;47.422;9.656;2023-05-10T05:07:36;1.00;;;1.00;;
4365;SDS011;2196;47.422;9.656;2023-05-10T05:10:05;0.70;;;0.70;;
4365;SDS011;2196;47.422;9.656;2023-05-10T05:12:34;1.00;;;0.90;;
4365;SDS011;2196;47.422;9.656;2023-05-10T05:15:01;2.30;;;1.07;;
4365;SDS011;2196;47.422;9.656;2023-05-10T05:17:29;2.90;;;1.60;;
4365;SDS011;2196;47.422;9.656;2023-05-10T05:19:59;0.80;;;0.80;;
4365;SDS011;2196;47.422;9.656;2023-05-10T05:22:26;1.10;;;1.10;;
4365;SDS011;2196;47.422;9.656;2023-05-10T05:24:54;0.70;;;0.70;;
4365;SDS011;2196;47.422;9.656;2023-05-10T05:27:23;0.80;;;0.80;;
4365;SDS011;2196;47.422;9.656;2023-05-10T05:29:52;1.30;;;1.00;;
4365;SDS011;2196;47.422;9.656;2023-05-10T05:32:19;1.53;;;1.43;;
4365;SDS011;2196;47.422;9.656;2023-05-10T05:34:45;0.70;;;0.60;;
4365;SDS011;2196;47.422;9.656;2023-05-10T05:37:13;1.47;;;0.90;;
4365;SDS011;2196;47.422;9.656;2023-05-10T05:39:40;1.27;;;0.40;;
4365;SDS011;2196;47.422;9.656;2023-05-10T05:42:08;1.17;;;0.97;;
4365;SDS011;2196;47.422;9.656;2023-05-10T05:44:36;0.80;;;0.80;;
4365;SDS011;2196;47.422;9.656;2023-05-10T05:47:04;0.60;;;0.37;;
4365;SDS011;2196;47.422;9.656;2023-05-10T05:49:31;0.70;;;0.70;;
4365;SDS011;2196;47.422;9.656;2023-05-10T05:51:59;0.50;;;0.50;;
4365;SDS011;2196;47.422;9.656;2023-05-10T05:54:26;1.40;;;1.03;;
4365;SDS011;2196;47.422;9.656;2023-05-10T05:56:54;0.90;;;0.90;;
4365;SDS011;2196;47.422;9.656;2023-05-10T05:59:21;0.60;;;0.60;;
4365;SDS011;2196;47.422;9.656;2023-05-10T06:01:50;0.73;;;0.73;;
4365;SDS011;2196;47.422;9.656;2023-05-10T06:04:17;1.90;;;0.80;;
4365;SDS011;2196;47.422;9.656;2023-05-10T06:06:44;0.67;;;0.67;;
4365;SDS011;2196;47.422;9.656;2023-05-10T06:09:11;0.40;;;0.40;;
4365;SDS011;2196;47.422;9.656;2023-05-10T06:11:40;0.60;;;0.60;;
4365;SDS011;2196;47.422;9.656;2023-05-10T06:14:07;1.23;;;0.40;;
4365;SDS011;2196;47.422;9.656;2023-05-10T06:16:34;0.50;;;0.23;;
4365;SDS011;2196;47.422;9.656;2023-05-10T06:19:03;0.30;;;0.30;;
4365;SDS011;2196;47.422;9.656;2023-05-10T06:21:29;0.87;;;0.40;;
4365;SDS011;2196;47.422;9.656;2023-05-10T06:23:56;0.50;;;0.50;;
4365;SDS011;2196;47.422;9.656;2023-05-10T06:26:23;1.23;;;0.30;;
4365;SDS011;2196;47.422;9.656;2023-05-10T06:28:50;2.03;;;0.30;;
4365;SDS011;2196;47.422;9.656;2023-05-10T06:31:17;2.33;;;0.70;;
4365;SDS011;2196;47.422;9.656;2023-05-10T06:33:44;0.47;;;0.47;;
4365;SDS011;2196;47.422;9.656;2023-05-10T06:36:13;12.40;;;0.93;;
4365;SDS011;2196;47.422;9.656;2023-05-10T06:38:40;2.90;;;0.27;;
4365;SDS011;2196;47.422;9.656;2023-05-10T06:41:07;1.27;;;0.30;;
4365;SDS011;2196;47.422;9.656;2023-05-10T06:43:34;0.20;;;0.20;;
4365;SDS011;2196;47.422;9.656;2023-05-10T06:46:04;0.60;;;0.30;;
4365;SDS011;2196;47.422;9.656;2023-05-10T06:48:32;0.30;;;0.30;;
4365;SDS011;2196;47.422;9.656;2023-05-10T06:50:59;1.73;;;0.30;;
4365;SDS011;2196;47.422;9.656;2023-05-10T06:53:28;1.03;;;0.30;;
4365;SDS011;2196;47.422;9.656;2023-05-10T06:55:55;0.73;;;0.30;;
4365;SDS011;2196;47.422;9.656;2023-05-10T06:58:22;0.60;;;0.30;;
4365;SDS011;2196;47.422;9.656;2023-05-10T07:00:49;0.30;;;0.30;;
4365;SDS011;2196;47.422;9.656;2023-05-10T07:03:16;0.40;;;0.40;;
4365;SDS011;2196;47.422;9.656;2023-05-10T07:05:43;0.50;;;0.30;;
4365;SDS011;2196;47.422;9.656;2023-05-10T07:08:10;1.60;;;0.33;;
4365;SDS011;2196;47.422;9.656;2023-05-10T07:10:39;0.77;;;0.40;;
4365;SDS011;2196;47.422;9.656;2023-05-10T07:13:07;1.17;;;0.30;;
4365;SDS011;2196;47.422;9.656;2023-05-10T07:15:34;0.83;;;0.37;;
4365;SDS011;2196;47.422;9.656;2023-05-10T07:18:01;0.30;;;0.30;;
4365;SDS011;2196;47.422;9.656;2023-05-10T07:20:31;1.80;;;0.60;;
4365;SDS011;2196;47.422;9.656;2023-05-10T07:22:58;0.30;;;0.30;;
4365;SDS011;2196;47.422;9.656;2023-05-10T07:25:25;0.30;;;0.30;;
4365;SDS011;2196;47.422;9.656;2023-05-10T07:27:53;0.63;;;0.20;;
4365;SDS011;2196;47.422;9.656;2023-05-10T07:30:20;0.50;;;0.20;;
4365;SDS011;2196;47.422;9.656;2023-05-10T07:32:47;1.17;;;0.30;;
4365;SDS011;2196;47.422;9.656;2023-05-10T07:35:14;0.20;;;0.20;;
4365;SDS011;2196;47.422;9.656;2023-05-10T07:37:41;0.20;;;0.20;;
4365;SDS011;2196;47.422;9.656;2023-05-10T07:40:08;0.53;;;0.53;;
4365;SDS011;2196;47.422;9.656;2023-05-10T07:42:36;0.60;;;0.60;;
4365;SDS011;2196;47.422;9.656;2023-05-10T07:45:05;0.47;;;0.20;;
4365;SDS011;2196;47.422;9.656;2023-05-10T07:47:37;0.20;;;0.20;;
4365;SDS011;2196;47.422;9.656;2023-05-10T07:50:05;2.10;;;0.20;;
4365;SDS011;2196;47.422;9.656;2023-05-10T07:52:34;0.20;;;0.20;;
4365;SDS011;2196;47.422;9.656;2023-05-10T07:55:01;0.23;;;0.20;;
4365;SDS011;2196;47.422;9.656;2023-05-10T07:57:28;2.77;;;0.27;;
4365;SDS011;2196;47.422;9.656;2023-05-10T07:59:55;0.83;;;0.30;;
4365;SDS011;2196;47.422;9.656;2023-05-10T08:02:24;0.93;;;0.30;;
4365;SDS011;2196;47.422;9.656;2023-05-10T08:04:51;1.07;;;0.47;;
4365;SDS011;2196;47.422;9.656;2023-05-10T08:07:18;0.57;;;0.50;;
4365;SDS011;2196;47.422;9.656;2023-05-10T08:09:46;2.33;;;0.50;;
4365;SDS011;2196;47.422;9.656;2023-05-10T08:12:12;3.07;;;0.40;;
4365;SDS011;2196;47.422;9.656;2023-05-10T08:14:39;0.73;;;0.60;;
4365;SDS011;2196;47.422;9.656;2023-05-10T08:17:06;2.10;;;1.03;;
4365;SDS011;2196;47.422;9.656;2023-05-10T08:19:35;0.60;;;0.50;;
4365;SDS011;2196;47.422;9.656;2023-05-10T08:22:01;1.70;;;0.50;;
4365;SDS011;2196;47.422;9.656;2023-05-10T08:24:28;2.60;;;1.07;;
4365;SDS011;2196;47.422;9.656;2023-05-10T08:26:55;1.50;;;1.03;;
4365;SDS011;2196;47.422;9.656;2023-05-10T08:29:22;0.70;;;0.70;;
4365;SDS011;2196;47.422;9.656;2023-05-10T08:31:49;1.53;;;1.07;;
4365;SDS011;2196;47.422;9.656;2023-05-10T08:34:16;0.40;;;0.40;;
4365;SDS011;2196;47.422;9.656;2023-05-10T08:36:44;0.87;;;0.57;;
4365;SDS011;2196;47.422;9.656;2023-05-10T08:39:11;0.93;;;0.33;;
4365;SDS011;2196;47.422;9.656;2023-05-10T08:41:39;1.23;;;0.80;;
4365;SDS011;2196;47.422;9.656;2023-05-10T08:44:09;0.77;;;0.77;;
4365;SDS011;2196;47.422;9.656;2023-05-10T08:46:37;2.50;;;0.47;;
4365;SDS011;2196;47.422;9.656;2023-05-10T08:49:09;0.83;;;0.47;;
4365;SDS011;2196;47.422;9.656;2023-05-10T08:51:40;4.17;;;1.23;;
4365;SDS011;2196;47.422;9.656;2023-05-10T08:54:14;0.50;;;0.30;;
4365;SDS011;2196;47.422;9.656;2023-05-10T08:56:42;0.37;;;0.20;;
4365;SDS011;2196;47.422;9.656;2023-05-10T08:59:09;0.60;;;0.20;;
4365;SDS011;2196;47.422;9.656;2023-05-10T09:01:37;0.10;;;0.10;;
4365;SDS011;2196;47.422;9.656;2023-05-10T09:04:04;1.73;;;0.20;;
4365;SDS011;2196;47.422;9.656;2023-05-10T09:06:31;0.30;;;0.30;;
4365;SDS011;2196;47.422;9.656;2023-05-10T09:09:01;0.20;;;0.20;;
4365;SDS011;2196;47.422;9.656;2023-05-10T09:11:28;0.20;;;0.20;;
4365;SDS011;2196;47.422;9.656;2023-05-10T09:13:56;0.10;;;0.10;;
4365;SDS011;2196;47.422;9.656;2023-05-10T09:16:23;1.10;;;0.13;;
4365;SDS011;2196;47.422;9.656;2023-05-10T09:18:50;0.10;;;0.10;;
4365;SDS011;2196;47.422;9.656;2023-05-10T09:21:18;0.10;;;0.10;;
4365;SDS011;2196;47.422;9.656;2023-05-10T09:23:45;0.73;;;0.10;;
4365;SDS011;2196;47.422;9.656;2023-05-10T09:26:16;0.30;;;0.30;;
4365;SDS011;2196;47.422;9.656;2023-05-10T09:28:50;0.87;;;0.43;;
4365;SDS011;2196;47.422;9.656;2023-05-10T09:31:18;0.20;;;0.20;;
4365;SDS011;2196;47.422;9.656;2023-05-10T09:33:45;0.50;;;0.40;;
4365;SDS011;2196;47.422;9.656;2023-05-10T09:36:13;2.93;;;0.33;;
4365;SDS011;2196;47.422;9.656;2023-05-10T09:38:46;3.60;;;0.30;;
4365;SDS011;2196;47.422;9.656;2023-05-10T09:41:19;2.53;;;0.30;;
4365;SDS011;2196;47.422;9.656;2023-05-10T09:43:47;0.30;;;0.20;;
4365;SDS011;2196;47.422;9.656;2023-05-10T09:46:15;0.20;;;0.20;;
4365;SDS011;2196;47.422;9.656;2023-05-10T09:48:43;0.30;;;0.30;;
4365;SDS011;2196;47.422;9.656;2023-05-10T09:51:18;0.73;;;0.20;;
4365;SDS011;2196;47.422;9.656;2023-05-10T09:53:45;6.60;;;0.30;;
4365;SDS011;2196;47.422;9.656;2023-05-10T09:56:12;0.27;;;0.13;;
4365;SDS011;2196;47.422;9.656;2023-05-10T09:58:40;1.13;;;0.20;;
4365;SDS011;2196;47.422;9.656;2023-05-10T10:01:10;0.60;;;0.20;;
4365;SDS011;2196;47.422;9.656;2023-05-10T10:03:41;1.40;;;0.20;;
4365;SDS011;2196;47.422;9.656;2023-05-10T10:06:08;0.20;;;0.20;;
4365;SDS011;2196;47.422;9.656;2023-05-10T10:08:35;0.30;;;0.10;;
4365;SDS011;2196;47.422;9.656;2023-05-10T10:11:03;0.20;;;0.20;;
4365;SDS011;2196;47.422;9.656;2023-05-10T10:13:30;0.30;;;0.30;;
4365;SDS011;2196;47.422;9.656;2023-05-10T10:15:59;0.20;;;0.20;;
4365;SDS011;2196;47.422;9.656;2023-05-10T10:18:26;0.10;;;0.10;;
4365;SDS011;2196;47.422;9.656;2023-05-10T10:20:54;0.17;;;0.17;;
4365;SDS011;2196;47.422;9.656;2023-05-10T10:23:22;0.13;;;0.10;;
4365;SDS011;2196;47.422;9.656;2023-05-10T10:25:49;0.20;;;0.20;;
4365;SDS011;2196;47.422;9.656;2023-05-10T10:28:20;0.73;;;0.13;;
4365;SDS011;2196;47.422;9.656;2023-05-10T10:30:52;3.40;;;0.10;;
4365;SDS011;2196;47.422;9.656;2023-05-10T10:33:28;0.70;;;0.30;;
4365;SDS011;2196;47.422;9.656;2023-05-10T10:36:02;0.10;;;0.10;;
4365;SDS011;2196;47.422;9.656;2023-05-10T10:38:36;1.17;;;0.10;;
4365;SDS011;2196;47.422;9.656;2023-05-10T10:41:27;0.10;;;0.10;;
4365;SDS011;2196;47.422;9.656;2023-05-10T10:47:02;1.97;;;0.20;;
4365;SDS011;2196;47.422;9.656;2023-05-10T10:49:37;0.30;;;0.10;;
4365;SDS011;2196;47.422;9.656;2023-05-10T10:52:24;0.50;;;0.20;;
4365;SDS011;2196;47.422;9.656;2023-05-10T10:54:57;0.60;;;0.20;;
4365;SDS011;2196;47.422;9.656;2023-05-10T10:57:26;2.10;;;0.50;;
4365;SDS011;2196;47.422;9.656;2023-05-10T11:02:49;1.27;;;0.20;;
4365;SDS011;2196;47.422;9.656;2023-05-10T11:08:17;0.20;;;0.20;;
4365;SDS011;2196;47.422;9.656;2023-05-10T11:10:53;2.83;;;0.20;;
4365;SDS011;2196;47.422;9.656;2023-05-10T11:13:30;0.20;;;0.20;;
4365;SDS011;2196;47.422;9.656;2023-05-10T11:15:58;0.20;;;0.20;;
4365;SDS011;2196;47.422;9.656;2023-05-10T11:18:36;0.40;;;0.20;;
4365;SDS011;2196;47.422;9.656;2023-05-10T11:21:05;0.10;;;0.10;;
4365;SDS011;2196;47.422;9.656;2023-05-10T11:23:47;0.30;;;0.30;;
4365;SDS011;2196;47.422;9.656;2023-05-10T11:26:15;0.30;;;0.30;;
4365;SDS011;2196;47.422;9.656;2023-05-10T11:28:42;0.40;;;0.10;;
4365;SDS011;2196;47.422;9.656;2023-05-10T11:31:09;0.17;;;0.17;;
4365;SDS011;2196;47.422;9.656;2023-05-10T11:33:42;0.37;;;0.30;;
4365;SDS011;2196;47.422;9.656;2023-05-10T11:36:12;1.60;;;0.30;;
4365;SDS011;2196;47.422;9.656;2023-05-10T11:38:40;2.00;;;0.30;;
4365;SDS011;2196;47.422;9.656;2023-05-10T11:41:08;0.93;;;0.40;;
4365;SDS011;2196;47.422;9.656;2023-05-10T11:43:36;0.70;;;0.40;;
4365;SDS011;2196;47.422;9.656;2023-05-10T11:46:04;0.40;;;0.30;;
4365;SDS011;2196;47.422;9.656;2023-05-10T11:48:32;2.67;;;0.50;;
4365;SDS011;2196;47.422;9.656;2023-05-10T11:51:00;1.80;;;0.27;;
4365;SDS011;2196;47.422;9.656;2023-05-10T11:53:29;0.20;;;0.20;;
4365;SDS011;2196;47.422;9.656;2023-05-10T11:56:02;0.77;;;0.30;;
4365;SDS011;2196;47.422;9.656;2023-05-10T11:58:30;0.70;;;0.43;;
4365;SDS011;2196;47.422;9.656;2023-05-10T12:00:58;0.30;;;0.30;;
4365;SDS011;2196;47.422;9.656;2023-05-10T12:03:25;0.40;;;0.20;;
4365;SDS011;2196;47.422;9.656;2023-05-10T12:05:53;0.20;;;0.20;;
4365;SDS011;2196;47.422;9.656;2023-05-10T12:08:21;0.27;;;0.20;;
4365;SDS011;2196;47.422;9.656;2023-05-10T12:10:50;0.13;;;0.13;;
4365;SDS011;2196;47.422;9.656;2023-05-10T12:13:18;0.17;;;0.17;;
4365;SDS011;2196;47.422;9.656;2023-05-10T12:15:46;0.53;;;0.20;;
4365;SDS011;2196;47.422;9.656;2023-05-10T12:18:13;0.93;;;0.13;;
4365;SDS011;2196;47.422;9.656;2023-05-10T12:20:41;0.90;;;0.40;;
4365;SDS011;2196;47.422;9.656;2023-05-10T12:23:08;0.30;;;0.30;;
4365;SDS011;2196;47.422;9.656;2023-05-10T12:25:36;0.30;;;0.10;;
4365;SDS011;2196;47.422;9.656;2023-05-10T12:28:05;0.80;;;0.20;;
4365;SDS011;2196;47.422;9.656;2023-05-10T12:30:33;0.47;;;0.30;;
4365;SDS011;2196;47.422;9.656;2023-05-10T12:33:02;0.27;;;0.27;;
4365;SDS011;2196;47.422;9.656;2023-05-10T12:35:42;0.40;;;0.10;;
4365;SDS011;2196;47.422;9.656;2023-05-10T12:40:54;0.20;;;0.20;;
4365;SDS011;2196;47.422;9.656;2023-05-10T12:43:23;1.40;;;0.30;;
4365;SDS011;2196;47.422;9.656;2023-05-10T12:45:50;0.20;;;0.20;;
4365;SDS011;2196;47.422;9.656;2023-05-10T12:48:17;0.23;;;0.20;;
4365;SDS011;2196;47.422;9.656;2023-05-10T12:50:44;0.90;;;0.30;;
4365;SDS011;2196;47.422;9.656;2023-05-10T12:53:11;0.37;;;0.20;;
4365;SDS011;2196;47.422;9.656;2023-05-10T12:55:40;0.30;;;0.30;;
4365;SDS011;2196;47.422;9.656;2023-05-10T12:58:07;0.43;;;0.20;;
4365;SDS011;2196;47.422;9.656;2023-05-10T13:00:36;0.20;;;0.20;;
4365;SDS011;2196;47.422;9.656;2023-05-10T13:03:03;2.30;;;0.27;;
4365;SDS011;2196;47.422;9.656;2023-05-10T13:05:31;0.20;;;0.20;;
4365;SDS011;2196;47.422;9.656;2023-05-10T13:07:58;0.40;;;0.30;;
4365;SDS011;2196;47.422;9.656;2023-05-10T13:10:25;0.27;;;0.20;;
4365;SDS011;2196;47.422;9.656;2023-05-10T13:12:52;1.30;;;0.30;;
4365;SDS011;2196;47.422;9.656;2023-05-10T13:15:19;0.20;;;0.20;;
4365;SDS011;2196;47.422;9.656;2023-05-10T13:17:48;0.40;;;0.40;;
4365;SDS011;2196;47.422;9.656;2023-05-10T13:20:15;0.20;;;0.20;;
4365;SDS011;2196;47.422;9.656;2023-05-10T13:22:42;0.20;;;0.20;;
4365;SDS011;2196;47.422;9.656;2023-05-10T13:25:10;0.20;;;0.20;;
4365;SDS011;2196;47.422;9.656;2023-05-10T13:27:37;1.50;;;0.47;;
4365;SDS011;2196;47.422;9.656;2023-05-10T13:30:05;1.40;;;0.60;;
4365;SDS011;2196;47.422;9.656;2023-05-10T13:32:33;0.30;;;0.30;;
4365;SDS011;2196;47.422;9.656;2023-05-10T13:35:03;0.60;;;0.20;;
4365;SDS011;2196;47.422;9.656;2023-05-10T13:37:31;0.37;;;0.30;;
4365;SDS011;2196;47.422;9.656;2023-05-10T13:40:02;1.80;;;0.20;;
4365;SDS011;2196;47.422;9.656;2023-05-10T13:42:31;0.30;;;0.30;;
4365;SDS011;2196;47.422;9.656;2023-05-10T13:45:05;0.93;;;0.50;;
4365;SDS011;2196;47.422;9.656;2023-05-10T13:47:32;0.40;;;0.40;;
4365;SDS011;2196;47.422;9.656;2023-05-10T13:50:05;0.80;;;0.63;;
4365;SDS011;2196;47.422;9.656;2023-05-10T13:52:33;1.17;;;0.70;;
4365;SDS011;2196;47.422;9.656;2023-05-10T13:55:00;0.53;;;0.30;;
4365;SDS011;2196;47.422;9.656;2023-05-10T13:57:27;0.73;;;0.40;;
4365;SDS011;2196;47.422;9.656;2023-05-10T13:59:55;0.23;;;0.23;;
4365;SDS011;2196;47.422;9.656;2023-05-10T14:02:22;1.90;;;0.60;;
4365;SDS011;2196;47.422;9.656;2023-05-10T14:04:49;1.23;;;1.07;;
4365;SDS011;2196;47.422;9.656;2023-05-10T14:07:18;0.90;;;0.87;;
4365;SDS011;2196;47.422;9.656;2023-05-10T14:09:45;1.73;;;1.63;;
4365;SDS011;2196;47.422;9.656;2023-05-10T14:12:12;0.67;;;0.67;;
4365;SDS011;2196;47.422;9.656;2023-05-10T14:14:39;0.40;;;0.40;;
4365;SDS011;2196;47.422;9.656;2023-05-10T14:17:06;0.73;;;0.50;;
4365;SDS011;2196;47.422;9.656;2023-05-10T14:19:33;0.40;;;0.40;;
4365;SDS011;2196;47.422;9.656;2023-05-10T14:22:00;0.40;;;0.40;;
4365;SDS011;2196;47.422;9.656;2023-05-10T14:24:29;0.10;;;0.10;;
4365;SDS011;2196;47.422;9.656;2023-05-10T14:26:56;1.23;;;0.30;;
4365;SDS011;2196;47.422;9.656;2023-05-10T14:29:23;0.20;;;0.20;;
4365;SDS011;2196;47.422;9.656;2023-05-10T14:31:50;0.30;;;0.30;;
4365;SDS011;2196;47.422;9.656;2023-05-10T14:34:17;0.30;;;0.30;;
4365;SDS011;2196;47.422;9.656;2023-05-10T14:36:45;0.53;;;0.43;;
4365;SDS011;2196;47.422;9.656;2023-05-10T14:39:11;0.40;;;0.40;;
4365;SDS011;2196;47.422;9.656;2023-05-10T14:41:40;0.30;;;0.30;;
4365;SDS011;2196;47.422;9.656;2023-05-10T14:44:09;1.70;;;0.40;;
4365;SDS011;2196;47.422;9.656;2023-05-10T14:46:36;0.57;;;0.30;;
4365;SDS011;2196;47.422;9.656;2023-05-10T14:49:03;1.50;;;0.30;;
4365;SDS011;2196;47.422;9.656;2023-05-10T14:51:30;0.27;;;0.27;;
4365;SDS011;2196;47.422;9.656;2023-05-10T14:53:57;0.20;;;0.10;;
4365;SDS011;2196;47.422;9.656;2023-05-10T14:56:24;0.50;;;0.50;;
4365;SDS011;2196;47.422;9.656;2023-05-10T14:58:54;0.30;;;0.30;;
4365;SDS011;2196;47.422;9.656;2023-05-10T15:01:21;1.33;;;0.53;;
4365;SDS011;2196;47.422;9.656;2023-05-10T15:03:48;0.33;;;0.33;;
4365;SDS011;2196;47.422;9.656;2023-05-10T15:06:15;0.90;;;0.30;;
4365;SDS011;2196;47.422;9.656;2023-05-10T15:08:42;1.23;;;0.67;;
4365;SDS011;2196;47.422;9.656;2023-05-10T15:11:09;0.60;;;0.60;;
4365;SDS011;2196;47.422;9.656;2023-05-10T15:13:36;0.97;;;0.97;;
4365;SDS011;2196;47.422;9.656;2023-05-10T15:16:04;1.30;;;0.73;;
4365;SDS011;2196;47.422;9.656;2023-05-10T15:18:31;0.20;;;0.20;;
4365;SDS011;2196;47.422;9.656;2023-05-10T15:20:58;3.23;;;0.43;;
4365;SDS011;2196;47.422;9.656;2023-05-10T15:23:25;0.77;;;0.20;;
4365;SDS011;2196;47.422;9.656;2023-05-10T15:25:53;0.20;;;0.20;;
4365;SDS011;2196;47.422;9.656;2023-05-10T15:28:20;0.30;;;0.30;;
4365;SDS011;2196;47.422;9.656;2023-05-10T15:30:47;1.43;;;0.57;;
4365;SDS011;2196;47.422;9.656;2023-05-10T15:33:16;0.50;;;0.50;;
4365;SDS011;2196;47.422;9.656;2023-05-10T15:35:42;1.03;;;0.67;;
4365;SDS011;2196;47.422;9.656;2023-05-10T15:38:09;1.50;;;0.93;;
4365;SDS011;2196;47.422;9.656;2023-05-10T15:40:37;1.93;;;0.60;;
4365;SDS011;2196;47.422;9.656;2023-05-10T15:43:04;0.80;;;0.80;;
4365;SDS011;2196;47.422;9.656;2023-05-10T15:45:31;0.50;;;0.50;;
4365;SDS011;2196;47.422;9.656;2023-05-10T15:47:58;0.83;;;0.70;;
4365;SDS011;2196;47.422;9.656;2023-05-10T15:50:27;0.60;;;0.60;;
4365;SDS011;2196;47.422;9.656;2023-05-10T15:52:54;0.97;;;0.53;;
4365;SDS011;2196;47.422;9.656;2023-05-10T15:55:21;0.90;;;0.87;;
4365;SDS011;2196;47.422;9.656;2023-05-10T15:57:48;0.47;;;0.47;;
4365;SDS011;2196;47.422;9.656;2023-05-10T16:00:15;0.70;;;0.30;;
4365;SDS011;2196;47.422;9.656;2023-05-10T16:02:43;0.70;;;0.57;;
4365;SDS011;2196;47.422;9.656;2023-05-10T16:05:10;3.00;;;0.40;;
4365;SDS011;2196;47.422;9.656;2023-05-10T16:07:39;1.20;;;0.47;;